Time;durP1;ratioP1;P1;durP2;ratioP2;P2;SDS_P1;SDS_P2;PMS_P1;PMS_P2;Temp;Humidity;BMP_temperature;BMP_pressure;BME280_temperature;BME280_humidity;BME280_pressure;Samples;Min_cycle;Max_cycle;Signal;HPM_P1;HPM_P2
2023/02/15 00:00:54;;;;;;;61.25;32.83;;;;;;;;;;770658;180;918754;-67
2023/02/15 00:03:20;;;;;;;53.07;30.47;;;;;;;;;;772330;180;920855;-69
2023/02/15 00:05:46;;;;;;;59.10;32.37;;;;;;;;;;768538;181;913821;-69
2023/02/15 00:08:12;;;;;;;56.57;30.40;;;;;;;;;;776380;179;634411;-69
2023/02/15 00:10:38;;;;;;;62.30;32.60;;;;;;;;;;773764;180;915738;-68
2023/02/15 00:13:03;;;;;;;61.88;29.77;;;;;;;;;;758229;184;918160;-68
2023/02/15 00:15:29;;;;;;;56.23;30.03;;;;;;;;;;774503;180;626358;-69
2023/02/15 00:17:55;;;;;;;59.03;30.20;;;;;;;;;;770119;182;914079;-69
2023/02/15 00:20:21;;;;;;;56.10;29.57;;;;;;;;;;767535;181;639153;-68
2023/02/15 00:22:47;;;;;;;61.77;31.47;;;;;;;;;;775073;180;918417;-68
2023/02/15 00:25:13;;;;;;;55.50;30.77;;;;;;;;;;778541;180;919899;-69
2023/02/15 00:27:39;;;;;;;61.77;33.50;;;;;;;;;;773550;180;919493;-69
2023/02/15 00:30:05;;;;;;;45.33;25.70;;;;;;;;;;772515;180;1012112;-68
2023/02/15 00:32:31;;;;;;;53.87;28.87;;;;;;;;;;773085;180;917791;-69
2023/02/15 00:34:57;;;;;;;56.93;31.33;;;;;;;;;;768867;181;1020763;-68
2023/02/15 00:37:23;;;;;;;69.93;31.75;;;;;;;;;;767159;181;1019040;-68
2023/02/15 00:39:48;;;;;;;60.93;31.30;;;;;;;;;;770807;181;919156;-68
2023/02/15 00:42:14;;;;;;;59.50;30.60;;;;;;;;;;768888;180;917347;-68
2023/02/15 00:44:40;;;;;;;61.27;30.90;;;;;;;;;;769258;181;920892;-68
2023/02/15 00:47:06;;;;;;;54.17;29.63;;;;;;;;;;771732;179;1017597;-68
2023/02/15 00:49:32;;;;;;;64.63;32.27;;;;;;;;;;778194;180;924186;-67
2023/02/15 00:51:58;;;;;;;65.07;33.37;;;;;;;;;;771072;180;920679;-68
2023/02/15 00:54:23;;;;;;;55.05;31.35;;;;;;;;;;773666;181;912129;-68
2023/02/15 00:56:49;;;;;;;60.07;34.27;;;;;;;;;;775161;181;629907;-68
2023/02/15 00:59:15;;;;;;;58.57;32.17;;;;;;;;;;764043;181;1112384;-69
2023/02/15 01:01:41;;;;;;;61.70;34.87;;;;;;;;;;773759;181;908044;-68
2023/02/15 01:04:07;;;;;;;62.93;33.17;;;;;;;;;;772269;181;919080;-69
2023/02/15 01:06:33;;;;;;;57.27;30.20;;;;;;;;;;770540;181;919499;-69
2023/02/15 01:08:59;;;;;;;61.63;33.93;;;;;;;;;;770087;181;921756;-68
2023/02/15 01:11:24;;;;;;;52.07;29.97;;;;;;;;;;770570;180;919545;-68
2023/02/15 01:13:50;;;;;;;56.63;30.87;;;;;;;;;;758056;186;919390;-69
2023/02/15 01:16:16;;;;;;;56.77;28.27;;;;;;;;;;764577;180;1124151;-68
2023/02/15 01:18:42;;;;;;;61.73;29.93;;;;;;;;;;773681;179;918880;-68
2023/02/15 01:21:09;;;;;;;56.03;30.73;;;;;;;;;;766243;180;918578;-68
2023/02/15 01:23:35;;;;;;;58.70;29.50;;;;;;;;;;765702;181;1021698;-68
2023/02/15 01:26:01;;;;;;;52.67;30.47;;;;;;;;;;757190;183;1020724;-68
2023/02/15 01:28:27;;;;;;;56.13;31.30;;;;;;;;;;776356;181;919230;-68
2023/02/15 01:30:53;;;;;;;58.87;30.40;;;;;;;;;;772306;180;919930;-68
2023/02/15 01:33:19;;;;;;;62.10;33.30;;;;;;;;;;763884;183;921791;-68
2023/02/15 01:35:45;;;;;;;58.40;31.50;;;;;;;;;;765944;181;920182;-69
2023/02/15 01:38:11;;;;;;;57.30;31.90;;;;;;;;;;766997;183;916436;-68
2023/02/15 01:40:38;;;;;;;57.93;33.03;;;;;;;;;;767816;180;1021424;-68
2023/02/15 01:43:02;;;;;;;55.80;29.77;;;;;;;;;;773785;180;919641;-68
2023/02/15 01:45:28;;;;;;;56.77;32.10;;;;;;;;;;776905;180;915436;-68
2023/02/15 01:48:01;;;;;;;68.83;31.30;;;;;;;;;;770621;180;915611;-68
2023/02/15 01:50:29;;;;;;;66.90;36.27;;;;;;;;;;761291;178;918393;-68
2023/02/15 01:53:00;;;;;;;64.03;32.47;;;;;;;;;;758707;183;921033;-69
2023/02/15 01:55:26;;;;;;;66.00;34.57;;;;;;;;;;763912;183;919196;-68
2023/02/15 01:57:52;;;;;;;59.43;31.40;;;;;;;;;;768919;180;919391;-67
2023/02/15 02:00:18;;;;;;;51.30;32.27;;;;;;;;;;772946;180;919703;-68
2023/02/15 02:02:44;;;;;;;57.00;30.67;;;;;;;;;;776212;180;918214;-67
2023/02/15 02:05:10;;;;;;;61.15;32.22;;;;;;;;;;766681;180;918275;-68
2023/02/15 02:07:35;;;;;;;59.47;34.27;;;;;;;;;;769406;180;916567;-68
2023/02/15 02:10:01;;;;;;;61.63;31.97;;;;;;;;;;771006;180;923135;-67
2023/02/15 02:12:27;;;;;;;66.90;33.37;;;;;;;;;;775285;181;947530;-68
2023/02/15 02:14:53;;;;;;;63.70;33.60;;;;;;;;;;763083;181;920650;-67
2023/02/15 02:17:19;;;;;;;70.72;32.47;;;;;;;;;;759081;182;919609;-68
2023/02/15 02:20:03;;;;;;;55.57;30.77;;;;;;;;;;773699;180;919731;-68
2023/02/15 02:22:48;;;;;;;56.60;31.70;;;;;;;;;;767864;182;909677;-67
2023/02/15 02:25:34;;;;;;;61.73;33.10;;;;;;;;;;768539;183;917982;-68
2023/02/15 02:28:04;;;;;;;54.55;30.00;;;;;;;;;;766200;182;918509;-68
2023/02/15 02:30:35;;;;;;;65.47;34.70;;;;;;;;;;765545;183;919224;-68
2023/02/15 02:33:14;;;;;;;70.73;37.60;;;;;;;;;;765813;181;934494;-68
2023/02/15 02:35:45;;;;;;;63.17;35.60;;;;;;;;;;763231;182;919114;-68
2023/02/15 02:38:11;;;;;;;61.70;35.23;;;;;;;;;;767914;180;1123231;-68
2023/02/15 02:40:41;;;;;;;66.43;35.80;;;;;;;;;;766695;180;918408;-68
2023/02/15 02:43:11;;;;;;;67.57;33.87;;;;;;;;;;754900;184;919212;-68
2023/02/15 02:45:36;;;;;;;67.37;35.67;;;;;;;;;;774982;180;919004;-68
2023/02/15 02:48:02;;;;;;;63.03;32.70;;;;;;;;;;768950;181;636372;-69
2023/02/15 02:50:28;;;;;;;64.47;32.10;;;;;;;;;;769700;184;627329;-68
2023/02/15 02:52:54;;;;;;;65.18;33.88;;;;;;;;;;764324;182;868372;-68
2023/02/15 02:55:35;;;;;;;66.90;34.97;;;;;;;;;;768230;180;918801;-67
2023/02/15 02:58:01;;;;;;;66.70;36.20;;;;;;;;;;773113;180;919189;-68
2023/02/15 03:00:27;;;;;;;69.43;35.40;;;;;;;;;;775077;180;640922;-67
2023/02/15 03:02:54;;;;;;;63.60;34.20;;;;;;;;;;771632;181;632061;-68
2023/02/15 03:05:20;;;;;;;61.73;31.20;;;;;;;;;;764610;181;938092;-68
2023/02/15 03:07:46;;;;;;;52.03;30.73;;;;;;;;;;767729;178;918116;-67
2023/02/15 03:10:11;;;;;;;60.50;31.53;;;;;;;;;;776859;179;917952;-70
2023/02/15 03:12:37;;;;;;;59.60;31.50;;;;;;;;;;770694;180;924449;-68
2023/02/15 03:15:03;;;;;;;56.83;29.20;;;;;;;;;;769288;181;1021445;-66
2023/02/15 03:17:29;;;;;;;59.97;32.97;;;;;;;;;;763389;181;919334;-68
2023/02/15 03:19:55;;;;;;;67.23;34.40;;;;;;;;;;763867;181;918888;-67
2023/02/15 03:22:21;;;;;;;65.27;34.00;;;;;;;;;;770977;180;919861;-68
2023/02/15 03:24:47;;;;;;;68.25;33.90;;;;;;;;;;770714;181;919812;-68
2023/02/15 03:27:16;;;;;;;68.33;36.60;;;;;;;;;;762833;183;919787;-67
2023/02/15 03:29:40;;;;;;;65.03;34.37;;;;;;;;;;772783;180;919952;-67
2023/02/15 03:32:06;;;;;;;63.80;32.27;;;;;;;;;;773435;180;915130;-68
2023/02/15 03:34:32;;;;;;;70.00;33.67;;;;;;;;;;777620;180;916046;-68
2023/02/15 03:37:15;;;;;;;63.33;33.33;;;;;;;;;;770799;181;915143;-68
2023/02/15 03:39:45;;;;;;;58.83;32.80;;;;;;;;;;775987;179;919926;-67
2023/02/15 03:42:17;;;;;;;62.33;32.37;;;;;;;;;;773343;180;913506;-68
2023/02/15 03:44:42;;;;;;;68.00;36.87;;;;;;;;;;773458;180;918958;-68
2023/02/15 03:47:09;;;;;;;62.13;34.90;;;;;;;;;;772982;181;921125;-68
2023/02/15 03:49:39;;;;;;;68.83;37.10;;;;;;;;;;772416;180;918690;-68
2023/02/15 03:52:04;;;;;;;70.15;35.60;;;;;;;;;;771077;180;1008485;-67
2023/02/15 04:02:15;;;;;;;66.00;35.43;;;;;;;;;;760460;181;919349;-67
2023/02/15 04:04:41;;;;;;;61.13;34.00;;;;;;;;;;761262;182;918336;-68
2023/02/15 04:07:07;;;;;;;69.83;37.30;;;;;;;;;;766355;181;917104;-67
2023/02/15 04:12:04;;;;;;;85.60;38.60;;;;;;;;;;770391;181;919673;-68
2023/02/15 04:17:02;;;;;;;99.95;39.60;;;;;;;;;;767372;181;1129830;-68
2023/02/15 04:27:03;;;;;;;228.17;48.33;;;;;;;;;;767112;180;915918;-68
2023/02/15 04:29:28;;;;;;;415.67;57.60;;;;;;;;;;773295;180;1016316;-68
2023/02/15 04:31:54;;;;;;;440.23;58.60;;;;;;;;;;759429;183;916480;-68
2023/02/15 04:34:20;;;;;;;269.13;48.57;;;;;;;;;;769182;181;914429;-68
2023/02/15 04:36:46;;;;;;;443.87;60.20;;;;;;;;;;769175;181;1124528;-68
2023/02/15 04:39:12;;;;;;;478.00;56.97;;;;;;;;;;761533;182;920489;-68
2023/02/15 04:41:38;;;;;;;515.13;68.37;;;;;;;;;;762621;182;918679;-68
2023/02/15 04:44:04;;;;;;;368.12;57.38;;;;;;;;;;774846;181;918695;-68
2023/02/15 04:46:30;;;;;;;367.50;55.20;;;;;;;;;;765747;181;919633;-68
2023/02/15 04:48:56;;;;;;;374.40;57.60;;;;;;;;;;771426;180;921821;-68
2023/02/15 04:51:21;;;;;;;605.07;73.30;;;;;;;;;;768946;181;925010;-68
2023/02/15 04:53:47;;;;;;;475.07;63.77;;;;;;;;;;763879;183;1119742;-68
2023/02/15 04:56:13;;;;;;;634.97;75.30;;;;;;;;;;762634;181;921050;-68
2023/02/15 04:58:41;;;;;;;252.35;42.40;;;;;;;;;;764983;181;917780;-68
2023/02/15 05:01:06;;;;;;;446.70;58.93;;;;;;;;;;775527;180;916937;-68
2023/02/15 05:03:31;;;;;;;370.23;50.30;;;;;;;;;;770895;181;918484;-68
2023/02/15 05:05:57;;;;;;;256.30;40.47;;;;;;;;;;768511;180;918788;-68
2023/02/15 05:08:23;;;;;;;500.50;55.67;;;;;;;;;;775299;181;627814;-68
2023/02/15 05:10:49;;;;;;;591.20;67.57;;;;;;;;;;764789;180;918886;-68
2023/02/15 05:13:15;;;;;;;376.63;49.47;;;;;;;;;;769321;180;1020735;-68
2023/02/15 05:15:41;;;;;;;372.90;49.43;;;;;;;;;;765962;180;918603;-67
2023/02/15 05:18:07;;;;;;;234.40;45.27;;;;;;;;;;765303;181;620955;-67
2023/02/15 05:20:32;;;;;;;348.47;48.20;;;;;;;;;;775095;180;631680;-67
2023/02/15 05:22:58;;;;;;;183.52;41.55;;;;;;;;;;770424;181;927762;-68
2023/02/15 05:30:27;;;;;;;202.33;44.27;;;;;;;;;;768047;180;919435;-68
2023/02/15 05:32:53;;;;;;;121.90;42.03;;;;;;;;;;772359;180;916654;-68
2023/02/15 05:35:19;;;;;;;128.93;38.53;;;;;;;;;;775117;180;918231;-68
2023/02/15 05:37:45;;;;;;;108.68;37.95;;;;;;;;;;769429;180;1022523;-68
2023/02/15 05:40:11;;;;;;;109.07;36.27;;;;;;;;;;767933;180;914932;-68
2023/02/15 05:42:37;;;;;;;142.47;41.77;;;;;;;;;;777706;180;924169;-67
2023/02/15 05:45:03;;;;;;;100.53;41.10;;;;;;;;;;770107;180;919797;-67
2023/02/15 05:47:29;;;;;;;65.20;37.33;;;;;;;;;;773576;179;913694;-67
2023/02/15 05:49:55;;;;;;;66.97;34.37;;;;;;;;;;772533;181;635471;-68
2023/02/15 05:52:21;;;;;;;59.80;35.97;;;;;;;;;;772449;181;728750;-67
2023/02/15 05:54:46;;;;;;;70.87;39.13;;;;;;;;;;763814;180;919253;-68
2023/02/15 05:57:12;;;;;;;62.90;35.72;;;;;;;;;;766343;181;1020661;-67
2023/02/15 05:59:38;;;;;;;55.83;33.83;;;;;;;;;;773932;180;919062;-68
2023/02/15 06:02:06;;;;;;;53.70;28.30;;;;;;;;;;767693;181;918362;-68
2023/02/15 06:04:30;;;;;;;50.60;29.20;;;;;;;;;;765528;180;918663;-67
2023/02/15 06:06:56;;;;;;;62.88;34.72;;;;;;;;;;776148;180;918224;-68
2023/02/15 06:09:21;;;;;;;63.53;34.47;;;;;;;;;;764705;181;923575;-68
2023/02/15 06:11:47;;;;;;;59.30;32.20;;;;;;;;;;768526;180;918860;-68
2023/02/15 06:14:13;;;;;;;60.50;32.45;;;;;;;;;;769698;181;919199;-68
2023/02/15 06:16:39;;;;;;;58.00;32.97;;;;;;;;;;770510;181;1024413;-67
2023/02/15 06:19:05;;;;;;;61.03;33.63;;;;;;;;;;772011;180;918627;-67
2023/02/15 06:21:31;;;;;;;68.87;37.27;;;;;;;;;;769708;180;919286;-67
2023/02/15 06:23:57;;;;;;;63.80;34.33;;;;;;;;;;765059;183;901220;-68
2023/02/15 06:26:22;;;;;;;67.67;37.50;;;;;;;;;;761141;183;917743;-68
2023/02/15 06:28:48;;;;;;;68.90;37.00;;;;;;;;;;760748;183;919975;-67
2023/02/15 06:31:15;;;;;;;68.90;36.33;;;;;;;;;;773503;181;922492;-68
2023/02/15 06:33:40;;;;;;;67.12;37.30;;;;;;;;;;772587;180;920235;-68
2023/02/15 06:36:06;;;;;;;67.27;37.43;;;;;;;;;;767030;181;916112;-68
2023/02/15 06:38:32;;;;;;;72.10;37.03;;;;;;;;;;766085;180;919436;-67
2023/02/15 06:40:58;;;;;;;60.20;35.73;;;;;;;;;;771498;181;917968;-68
2023/02/15 06:43:23;;;;;;;62.23;37.27;;;;;;;;;;769684;181;919261;-68
2023/02/15 06:45:49;;;;;;;64.30;34.30;;;;;;;;;;772263;178;917915;-67
2023/02/15 06:48:15;;;;;;;63.70;33.37;;;;;;;;;;772962;182;918728;-67
2023/02/15 06:50:41;;;;;;;69.93;36.73;;;;;;;;;;770352;180;918362;-67
2023/02/15 06:53:07;;;;;;;68.50;35.42;;;;;;;;;;767205;180;915214;-67
2023/02/15 06:55:33;;;;;;;72.53;35.77;;;;;;;;;;773105;180;920163;-68
2023/02/15 06:57:58;;;;;;;74.60;39.87;;;;;;;;;;768957;180;922176;-67
2023/02/15 07:00:24;;;;;;;74.33;37.43;;;;;;;;;;765468;180;919065;-68
2023/02/15 07:02:55;;;;;;;93.33;41.17;;;;;;;;;;771642;180;918465;-67
2023/02/15 07:05:19;;;;;;;81.47;40.77;;;;;;;;;;766660;180;921004;-68
2023/02/15 07:07:45;;;;;;;88.90;39.30;;;;;;;;;;769468;180;918934;-68
2023/02/15 07:10:10;;;;;;;76.90;36.70;;;;;;;;;;764754;181;922863;-68
2023/02/15 07:12:42;;;;;;;89.83;38.60;;;;;;;;;;768033;182;918437;-68
2023/02/15 07:15:08;;;;;;;88.17;35.40;;;;;;;;;;768697;179;986073;-68
2023/02/15 07:17:33;;;;;;;66.77;34.40;;;;;;;;;;769268;179;919978;-68
2023/02/15 07:19:59;;;;;;;58.67;32.87;;;;;;;;;;774114;180;916162;-68
2023/02/15 07:22:25;;;;;;;63.77;32.03;;;;;;;;;;766594;181;918497;-68
2023/02/15 07:24:54;;;;;;;57.77;30.67;;;;;;;;;;771748;181;654176;-68
2023/02/15 07:27:17;;;;;;;63.03;30.50;;;;;;;;;;773526;180;632761;-69
2023/02/15 07:29:43;;;;;;;55.57;30.27;;;;;;;;;;770457;181;639784;-68
2023/02/15 07:32:08;;;;;;;57.33;27.07;;;;;;;;;;769824;181;633788;-68
2023/02/15 07:34:34;;;;;;;44.50;27.40;;;;;;;;;;770676;180;917570;-68
2023/02/15 07:37:00;;;;;;;54.13;28.90;;;;;;;;;;776244;180;918924;-68
2023/02/15 07:39:26;;;;;;;53.20;27.53;;;;;;;;;;769372;181;1020429;-69
2023/02/15 07:41:52;;;;;;;59.80;28.70;;;;;;;;;;772178;181;918370;-69
2023/02/15 07:44:18;;;;;;;50.73;29.73;;;;;;;;;;769458;181;915476;-69
2023/02/15 07:46:44;;;;;;;52.65;27.80;;;;;;;;;;764147;181;919613;-69
2023/02/15 07:49:10;;;;;;;50.23;29.10;;;;;;;;;;766875;180;919991;-70
2023/02/15 07:51:35;;;;;;;55.88;27.52;;;;;;;;;;770322;180;914671;-69
2023/02/15 07:54:01;;;;;;;57.00;30.27;;;;;;;;;;769492;180;891045;-70
2023/02/15 07:56:27;;;;;;;59.87;30.53;;;;;;;;;;772429;178;918554;-69
2023/02/15 07:58:57;;;;;;;53.90;28.30;;;;;;;;;;771465;180;919682;-69
2023/02/15 08:01:19;;;;;;;55.40;27.83;;;;;;;;;;776593;180;917834;-69
2023/02/15 08:03:45;;;;;;;51.63;28.10;;;;;;;;;;774278;180;918875;-69
2023/02/15 08:06:12;;;;;;;48.30;28.30;;;;;;;;;;769419;180;919263;-69
2023/02/15 08:08:37;;;;;;;59.13;29.50;;;;;;;;;;776576;180;635026;-69
2023/02/15 08:13:35;;;;;;;47.07;25.90;;;;;;;;;;770452;180;641421;-70
2023/02/15 08:16:00;;;;;;;53.57;29.40;;;;;;;;;;772702;180;636053;-70
2023/02/15 08:18:26;;;;;;;59.87;26.30;;;;;;;;;;775439;180;624648;-70
2023/02/15 08:20:52;;;;;;;47.53;27.20;;;;;;;;;;771696;181;640442;-70
2023/02/15 08:23:18;;;;;;;50.97;25.70;;;;;;;;;;767143;181;919217;-70
2023/02/15 08:25:44;;;;;;;50.47;26.87;;;;;;;;;;772449;181;1020356;-70
2023/02/15 08:28:10;;;;;;;56.67;29.43;;;;;;;;;;769469;180;919481;-70
2023/02/15 08:30:36;;;;;;;47.13;25.40;;;;;;;;;;767464;181;918331;-71
2023/02/15 08:33:02;;;;;;;49.47;25.53;;;;;;;;;;767472;181;918329;-71
2023/02/15 08:35:28;;;;;;;55.17;28.57;;;;;;;;;;767335;180;919019;-70
2023/02/15 08:37:54;;;;;;;42.10;24.17;;;;;;;;;;767964;180;917823;-71
2023/02/15 08:40:20;;;;;;;50.37;28.40;;;;;;;;;;763658;180;919237;-70
2023/02/15 08:42:45;;;;;;;47.57;25.70;;;;;;;;;;776424;180;915889;-71
2023/02/15 08:45:11;;;;;;;50.87;25.77;;;;;;;;;;766731;180;1021140;-71
2023/02/15 08:47:37;;;;;;;51.10;26.53;;;;;;;;;;767409;180;921828;-71
2023/02/15 08:50:04;;;;;;;51.67;27.33;;;;;;;;;;772730;180;918328;-70
2023/02/15 08:52:29;;;;;;;49.67;27.33;;;;;;;;;;769321;181;924823;-71
2023/02/15 08:54:55;;;;;;;56.57;29.80;;;;;;;;;;769588;180;912716;-71
2023/02/15 08:57:21;;;;;;;49.13;25.97;;;;;;;;;;772109;180;917530;-70
2023/02/15 08:59:46;;;;;;;56.80;29.17;;;;;;;;;;768872;180;918969;-71
2023/02/15 09:02:12;;;;;;;52.87;26.07;;;;;;;;;;766543;181;824014;-71
2023/02/15 09:04:38;;;;;;;56.63;28.70;;;;;;;;;;766541;180;918795;-72
2023/02/15 09:07:04;;;;;;;51.50;25.33;;;;;;;;;;768189;182;812753;-70
2023/02/15 09:09:31;;;;;;;54.80;28.40;;;;;;;;;;769529;179;914847;-70
2023/02/15 09:11:56;;;;;;;43.28;25.50;;;;;;;;;;773609;180;824444;-71
2023/02/15 09:14:23;;;;;;;48.13;26.20;;;;;;;;;;774701;180;918305;-71
2023/02/15 09:16:49;;;;;;;48.80;25.63;;;;;;;;;;770267;180;918208;-71
2023/02/15 09:19:13;;;;;;;48.22;24.95;;;;;;;;;;768355;180;803931;-71
2023/02/15 09:21:39;;;;;;;52.20;27.57;;;;;;;;;;771178;180;918622;-71
2023/02/15 09:24:05;;;;;;;44.17;25.90;;;;;;;;;;768832;180;918351;-71
2023/02/15 09:26:31;;;;;;;47.20;28.00;;;;;;;;;;768600;180;917125;-71
2023/02/15 09:28:57;;;;;;;49.33;27.03;;;;;;;;;;771271;181;945085;-71
2023/02/15 09:31:23;;;;;;;54.33;28.17;;;;;;;;;;769283;180;838351;-71
2023/02/15 09:33:48;;;;;;;55.73;29.17;;;;;;;;;;768126;180;916487;-71
2023/02/15 09:36:16;;;;;;;49.20;26.70;;;;;;;;;;765974;180;919377;-71
2023/02/15 09:38:42;;;;;;;47.17;27.50;;;;;;;;;;775320;180;915318;-71
2023/02/15 09:41:25;;;;;;;47.97;29.00;;;;;;;;;;769145;180;917701;-72
2023/02/15 09:44:09;;;;;;;42.83;25.73;;;;;;;;;;767035;180;914241;-71
2023/02/15 09:46:51;;;;;;;37.92;22.50;;;;;;;;;;765953;180;919336;-70
2023/02/15 09:49:17;;;;;;;49.07;25.20;;;;;;;;;;770230;180;919112;-70
2023/02/15 09:51:43;;;;;;;48.97;29.00;;;;;;;;;;768636;181;914411;-70
2023/02/15 09:54:11;;;;;;;47.13;25.90;;;;;;;;;;771511;180;914229;-69
2023/02/15 09:56:38;;;;;;;42.53;23.73;;;;;;;;;;766163;180;919254;-70
2023/02/15 09:59:18;;;;;;;48.43;26.47;;;;;;;;;;767939;180;918753;-70
2023/02/15 10:01:50;;;;;;;45.00;27.13;;;;;;;;;;767696;179;913060;-70
2023/02/15 10:04:18;;;;;;;38.70;23.20;;;;;;;;;;777042;180;918819;-70
2023/02/15 10:06:46;;;;;;;40.40;24.07;;;;;;;;;;773783;180;842113;-70
2023/02/15 10:09:27;;;;;;;43.93;26.47;;;;;;;;;;769810;180;918969;-70
2023/02/15 10:11:53;;;;;;;43.87;25.67;;;;;;;;;;768506;180;833956;-71
2023/02/15 10:14:19;;;;;;;41.27;23.90;;;;;;;;;;769518;181;815279;-70
2023/02/15 10:16:49;;;;;;;43.15;27.37;;;;;;;;;;768233;180;919294;-70
2023/02/15 10:19:20;;;;;;;45.13;24.33;;;;;;;;;;767638;180;919296;-70
2023/02/15 10:21:50;;;;;;;41.90;27.20;;;;;;;;;;768587;180;922550;-70
2023/02/15 10:24:18;;;;;;;47.50;26.93;;;;;;;;;;768811;180;1009408;-70
2023/02/15 10:26:44;;;;;;;47.73;28.60;;;;;;;;;;768334;180;919208;-69
2023/02/15 10:29:10;;;;;;;42.90;25.23;;;;;;;;;;773941;180;929274;-70
2023/02/15 10:31:48;;;;;;;43.20;25.97;;;;;;;;;;769987;181;917157;-71
2023/02/15 10:34:15;;;;;;;39.57;26.50;;;;;;;;;;769977;180;910601;-71
2023/02/15 10:36:56;;;;;;;45.50;26.20;;;;;;;;;;768412;180;913877;-71
2023/02/15 10:39:39;;;;;;;42.27;25.43;;;;;;;;;;769163;179;904871;-72
2023/02/15 10:42:21;;;;;;;43.70;26.83;;;;;;;;;;767745;179;1120802;-70
2023/02/15 10:44:48;;;;;;;40.90;26.27;;;;;;;;;;764238;180;931546;-71
2023/02/15 10:47:32;;;;;;;40.90;25.23;;;;;;;;;;774138;179;1034751;-71
2023/02/15 10:49:58;;;;;;;38.53;24.83;;;;;;;;;;768321;180;958723;-71
2023/02/15 10:52:30;;;;;;;46.72;29.73;;;;;;;;;;767742;180;915262;-72
2023/02/15 10:54:55;;;;;;;42.63;27.70;;;;;;;;;;768773;180;916443;-71
2023/02/15 10:57:24;;;;;;;40.57;25.27;;;;;;;;;;766916;180;842045;-71
2023/02/15 10:59:55;;;;;;;41.77;25.77;;;;;;;;;;773022;180;710374;-71
2023/02/15 11:02:25;;;;;;;37.97;23.47;;;;;;;;;;771889;180;802375;-72
2023/02/15 11:04:51;;;;;;;36.27;23.17;;;;;;;;;;765648;176;822722;-69
2023/02/15 11:07:34;;;;;;;37.63;23.10;;;;;;;;;;776714;179;911526;-69
2023/02/15 11:10:00;;;;;;;41.50;24.10;;;;;;;;;;773545;179;911443;-68
2023/02/15 11:12:25;;;;;;;32.53;19.80;;;;;;;;;;781789;179;915959;-68
2023/02/15 11:14:54;;;;;;;38.10;22.37;;;;;;;;;;775506;179;917466;-63
2023/02/15 11:17:20;;;;;;;39.40;23.80;;;;;;;;;;774708;179;918855;-69
2023/02/15 11:19:48;;;;;;;40.03;24.90;;;;;;;;;;778852;178;941386;-68
2023/02/15 11:22:14;;;;;;;36.53;22.40;;;;;;;;;;777671;178;920467;-68
2023/02/15 11:24:40;;;;;;;37.22;21.12;;;;;;;;;;782739;176;750510;-68
2023/02/15 11:27:06;;;;;;;42.10;24.37;;;;;;;;;;779506;178;817375;-68
2023/02/15 11:29:35;;;;;;;38.90;22.90;;;;;;;;;;777619;179;924400;-64
2023/02/15 11:32:02;;;;;;;35.73;23.87;;;;;;;;;;779312;177;920323;-68
2023/02/15 11:34:27;;;;;;;37.77;24.37;;;;;;;;;;779368;177;816671;-69
2023/02/15 11:36:53;;;;;;;41.07;23.07;;;;;;;;;;782292;178;806897;-68
2023/02/15 11:39:19;;;;;;;43.90;24.70;;;;;;;;;;777947;176;914348;-68
2023/02/15 11:41:45;;;;;;;39.53;21.70;;;;;;;;;;775900;178;904865;-68
2023/02/15 11:44:26;;;;;;;37.47;22.57;;;;;;;;;;782637;177;768870;-65
2023/02/15 11:46:51;;;;;;;40.50;23.23;;;;;;;;;;780497;178;912406;-69
2023/02/15 11:49:23;;;;;;;38.13;22.50;;;;;;;;;;776695;176;920562;-64
2023/02/15 11:51:50;;;;;;;41.63;24.97;;;;;;;;;;782962;176;922303;-64
2023/02/15 11:54:15;;;;;;;38.63;20.67;;;;;;;;;;780256;179;729139;-67
2023/02/15 11:56:41;;;;;;;40.17;22.80;;;;;;;;;;783344;178;918288;-68
2023/02/15 11:59:07;;;;;;;40.60;26.33;;;;;;;;;;775357;176;914462;-65
2023/02/15 12:01:35;;;;;;;42.85;24.27;;;;;;;;;;777461;179;816095;-68
2023/02/15 12:04:03;;;;;;;40.47;22.90;;;;;;;;;;776180;178;919916;-65
2023/02/15 12:06:29;;;;;;;41.47;25.57;;;;;;;;;;770630;180;918421;-68
2023/02/15 12:09:10;;;;;;;42.30;25.23;;;;;;;;;;781178;179;919669;-69
2023/02/15 12:11:36;;;;;;;38.90;23.47;;;;;;;;;;781261;175;917345;-65
2023/02/15 12:14:02;;;;;;;41.57;25.73;;;;;;;;;;778516;177;823450;-69
2023/02/15 12:16:28;;;;;;;36.15;23.02;;;;;;;;;;784317;179;815759;-69
2023/02/15 12:18:53;;;;;;;42.00;24.17;;;;;;;;;;781587;177;815434;-68
2023/02/15 12:21:25;;;;;;;37.75;23.92;;;;;;;;;;775289;179;988456;-69
2023/02/15 12:23:51;;;;;;;45.97;28.47;;;;;;;;;;777891;178;812261;-65
2023/02/15 12:26:23;;;;;;;48.60;27.27;;;;;;;;;;779412;178;919522;-66
2023/02/15 12:28:49;;;;;;;43.33;27.00;;;;;;;;;;780496;177;809351;-69
2023/02/15 12:31:18;;;;;;;41.20;23.77;;;;;;;;;;778366;179;636427;-69
2023/02/15 12:33:45;;;;;;;35.20;21.43;;;;;;;;;;779781;177;950703;-65
2023/02/15 12:36:17;;;;;;;37.90;23.30;;;;;;;;;;780904;177;919297;-64
2023/02/15 12:38:44;;;;;;;44.27;24.77;;;;;;;;;;775048;178;918498;-69
2023/02/15 12:41:16;;;;;;;45.37;23.93;;;;;;;;;;776762;179;916310;-68
2023/02/15 12:43:45;;;;;;;44.40;26.13;;;;;;;;;;777635;177;918235;-65
2023/02/15 12:46:22;;;;;;;41.57;22.30;;;;;;;;;;773163;178;896002;-69
2023/02/15 12:48:48;;;;;;;43.37;25.47;;;;;;;;;;780512;177;917428;-68
2023/02/15 12:51:14;;;;;;;43.17;25.23;;;;;;;;;;780281;177;812895;-69
2023/02/15 12:53:40;;;;;;;41.67;25.27;;;;;;;;;;778808;178;908503;-65
2023/02/15 12:56:06;;;;;;;45.63;27.33;;;;;;;;;;784186;178;817863;-65
2023/02/15 12:58:31;;;;;;;47.30;26.00;;;;;;;;;;776116;178;918446;-65
2023/02/15 13:01:03;;;;;;;49.43;29.60;;;;;;;;;;778430;177;916044;-65
2023/02/15 13:03:29;;;;;;;49.87;28.87;;;;;;;;;;779962;179;816593;-70
2023/02/15 13:05:55;;;;;;;42.30;26.10;;;;;;;;;;776972;178;914802;-66
2023/02/15 13:08:21;;;;;;;48.20;27.67;;;;;;;;;;778958;179;730978;-69
2023/02/15 13:10:52;;;;;;;47.72;26.25;;;;;;;;;;774576;178;1021176;-68
2023/02/15 13:13:21;;;;;;;49.17;27.93;;;;;;;;;;782957;177;862655;-69
2023/02/15 13:15:44;;;;;;;40.63;23.83;;;;;;;;;;784396;176;918718;-68
2023/02/15 13:18:11;;;;;;;51.00;27.90;;;;;;;;;;777651;178;816488;-70
2023/02/15 13:20:37;;;;;;;47.70;29.30;;;;;;;;;;783391;179;918454;-68
2023/02/15 13:23:04;;;;;;;48.30;28.63;;;;;;;;;;777942;179;919113;-65
2023/02/15 13:25:28;;;;;;;45.00;25.87;;;;;;;;;;776512;177;820097;-68
2023/02/15 13:27:55;;;;;;;46.27;26.17;;;;;;;;;;773817;178;898807;-65
2023/02/15 13:30:38;;;;;;;50.00;27.17;;;;;;;;;;780492;177;863291;-65
2023/02/15 13:33:05;;;;;;;48.40;27.27;;;;;;;;;;782748;178;923726;-68
2023/02/15 13:35:31;;;;;;;48.10;27.97;;;;;;;;;;777087;178;943725;-64
2023/02/15 13:37:58;;;;;;;47.30;25.70;;;;;;;;;;771704;179;920591;-64
2023/02/15 13:40:42;;;;;;;45.80;25.70;;;;;;;;;;784234;175;919115;-68
2023/02/15 13:43:14;;;;;;;39.00;24.60;;;;;;;;;;776642;177;918086;-64
2023/02/15 13:45:44;;;;;;;50.40;28.58;;;;;;;;;;783262;177;947666;-64
2023/02/15 13:48:09;;;;;;;48.90;26.37;;;;;;;;;;774873;177;918806;-65
2023/02/15 13:50:37;;;;;;;56.67;28.55;;;;;;;;;;774775;177;1021793;-67
2023/02/15 13:53:21;;;;;;;44.47;26.33;;;;;;;;;;780730;179;913207;-68
2023/02/15 13:55:47;;;;;;;51.03;25.70;;;;;;;;;;784470;178;819315;-65
2023/02/15 13:58:19;;;;;;;48.93;24.73;;;;;;;;;;777071;180;919066;-66
2023/02/15 14:00:49;;;;;;;51.13;27.63;;;;;;;;;;779583;177;818498;-67
2023/02/15 14:03:17;;;;;;;46.30;26.27;;;;;;;;;;776870;178;912673;-68
2023/02/15 14:05:47;;;;;;;45.23;26.90;;;;;;;;;;777234;178;910562;-68
2023/02/15 14:08:15;;;;;;;48.73;24.87;;;;;;;;;;775855;178;815865;-69
2023/02/15 14:10:42;;;;;;;51.30;28.80;;;;;;;;;;778323;178;920502;-68
2023/02/15 14:13:31;;;;;;;48.67;26.53;;;;;;;;;;780157;176;868820;-64
2023/02/15 14:15:55;;;;;;;50.30;26.87;;;;;;;;;;767677;177;820425;-68
2023/02/15 14:18:25;;;;;;;45.37;24.67;;;;;;;;;;777023;178;917930;-68
2023/02/15 14:21:06;;;;;;;46.80;25.97;;;;;;;;;;784508;178;820309;-65
2023/02/15 14:23:35;;;;;;;49.03;25.90;;;;;;;;;;775300;178;817664;-65
2023/02/15 14:25:59;;;;;;;48.00;25.97;;;;;;;;;;778767;178;816806;-65
2023/02/15 14:28:31;;;;;;;45.47;27.27;;;;;;;;;;777125;179;916867;-69
2023/02/15 14:30:57;;;;;;;44.63;27.90;;;;;;;;;;773990;179;916574;-68